sensor_id;sensor_type;location;lat;lon;timestamp;temperature;humidity
40123;DHT22;25832;45.490;4.912;2023-02-21T00:02:06;3.50;99.90
40123;DHT22;25832;45.490;4.912;2023-02-21T00:04:50;3.50;99.90
40123;DHT22;25832;45.490;4.912;2023-02-21T00:07:34;3.50;99.90
40123;DHT22;25832;45.490;4.912;2023-02-21T00:10:18;3.50;99.90
40123;DHT22;25832;45.490;4.912;2023-02-21T00:13:02;3.50;99.90
40123;DHT22;25832;45.490;4.912;2023-02-21T00:15:47;3.50;99.90
40123;DHT22;25832;45.490;4.912;2023-02-21T00:18:35;3.60;99.90
40123;DHT22;25832;45.490;4.912;2023-02-21T00:21:19;3.70;99.90
40123;DHT22;25832;45.490;4.912;2023-02-21T00:24:04;3.70;99.90
40123;DHT22;25832;45.490;4.912;2023-02-21T00:26:49;3.80;99.90
40123;DHT22;25832;45.490;4.912;2023-02-21T00:29:33;3.80;99.90
40123;DHT22;25832;45.490;4.912;2023-02-21T00:32:17;3.90;99.90
40123;DHT22;25832;45.490;4.912;2023-02-21T00:35:01;3.80;99.90
40123;DHT22;25832;45.490;4.912;2023-02-21T00:37:52;3.80;99.90
40123;DHT22;25832;45.490;4.912;2023-02-21T00:40:36;3.70;99.90
40123;DHT22;25832;45.490;4.912;2023-02-21T00:43:32;3.70;99.90
40123;DHT22;25832;45.490;4.912;2023-02-21T00:46:17;3.70;99.90
40123;DHT22;25832;45.490;4.912;2023-02-21T00:49:02;3.70;99.90
40123;DHT22;25832;45.490;4.912;2023-02-21T00:51:46;3.60;99.90
40123;DHT22;25832;45.490;4.912;2023-02-21T00:54:30;3.50;99.90
40123;DHT22;25832;45.490;4.912;2023-02-21T00:57:15;3.40;99.90
40123;DHT22;25832;45.490;4.912;2023-02-21T00:59:59;3.40;99.90
40123;DHT22;25832;45.490;4.912;2023-02-21T01:02:43;3.40;99.90
40123;DHT22;25832;45.490;4.912;2023-02-21T01:05:27;3.30;99.90
40123;DHT22;25832;45.490;4.912;2023-02-21T01:08:12;3.20;99.90
40123;DHT22;25832;45.490;4.912;2023-02-21T01:10:57;3.10;99.90
40123;DHT22;25832;45.490;4.912;2023-02-21T01:13:41;3.10;99.90
40123;DHT22;25832;45.490;4.912;2023-02-21T01:16:30;3.00;99.90
40123;DHT22;25832;45.490;4.912;2023-02-21T01:19:14;3.00;99.90
40123;DHT22;25832;45.490;4.912;2023-02-21T01:21:58;2.90;99.90
40123;DHT22;25832;45.490;4.912;2023-02-21T01:24:42;2.90;99.90
40123;DHT22;25832;45.490;4.912;2023-02-21T01:27:27;2.90;99.90
40123;DHT22;25832;45.490;4.912;2023-02-21T01:30:11;2.90;99.90
40123;DHT22;25832;45.490;4.912;2023-02-21T01:32:55;2.90;99.90
40123;DHT22;25832;45.490;4.912;2023-02-21T01:35:40;2.80;99.90
40123;DHT22;25832;45.490;4.912;2023-02-21T01:38:24;2.80;99.90
40123;DHT22;25832;45.490;4.912;2023-02-21T01:41:09;2.80;99.90
40123;DHT22;25832;45.490;4.912;2023-02-21T01:43:59;2.80;99.90
40123;DHT22;25832;45.490;4.912;2023-02-21T01:46:43;2.80;99.90
40123;DHT22;25832;45.490;4.912;2023-02-21T01:49:28;2.80;99.90
40123;DHT22;25832;45.490;4.912;2023-02-21T01:52:13;2.80;99.90
40123;DHT22;25832;45.490;4.912;2023-02-21T01:54:57;2.80;99.90
40123;DHT22;25832;45.490;4.912;2023-02-21T01:57:43;2.80;99.90
40123;DHT22;25832;45.490;4.912;2023-02-21T02:00:28;2.90;99.90
40123;DHT22;25832;45.490;4.912;2023-02-21T02:03:16;2.90;99.90
40123;DHT22;25832;45.490;4.912;2023-02-21T02:06:08;2.90;99.90
40123;DHT22;25832;45.490;4.912;2023-02-21T02:08:53;2.90;99.90
40123;DHT22;25832;45.490;4.912;2023-02-21T02:25:09;2.70;99.90
40123;DHT22;25832;45.490;4.912;2023-02-21T02:36:07;2.70;99.90
40123;DHT22;25832;45.490;4.912;2023-02-21T02:43:58;2.70;99.90
40123;DHT22;25832;45.490;4.912;2023-02-21T02:46:28;2.60;99.90
40123;DHT22;25832;45.490;4.912;2023-02-21T02:48:57;2.70;99.90
40123;DHT22;25832;45.490;4.912;2023-02-21T02:51:25;2.70;99.90
40123;DHT22;25832;45.490;4.912;2023-02-21T02:53:51;2.60;99.90
40123;DHT22;25832;45.490;4.912;2023-02-21T02:56:17;2.70;99.90
40123;DHT22;25832;45.490;4.912;2023-02-21T02:59:05;2.60;99.90
40123;DHT22;25832;45.490;4.912;2023-02-21T03:15:36;2.50;99.90
40123;DHT22;25832;45.490;4.912;2023-02-21T03:18:07;2.60;99.90
40123;DHT22;25832;45.490;4.912;2023-02-21T03:20:34;2.70;99.90
40123;DHT22;25832;45.490;4.912;2023-02-21T03:23:02;2.80;99.90
40123;DHT22;25832;45.490;4.912;2023-02-21T03:25:29;2.90;99.90
40123;DHT22;25832;45.490;4.912;2023-02-21T03:27:57;2.90;99.90
40123;DHT22;25832;45.490;4.912;2023-02-21T03:30:24;2.80;99.90
40123;DHT22;25832;45.490;4.912;2023-02-21T03:32:51;2.70;99.90
40123;DHT22;25832;45.490;4.912;2023-02-21T03:35:18;2.60;99.90
40123;DHT22;25832;45.490;4.912;2023-02-21T03:37:47;2.50;99.90
40123;DHT22;25832;45.490;4.912;2023-02-21T03:42:45;2.30;99.90
40123;DHT22;25832;45.490;4.912;2023-02-21T03:45:11;2.30;99.90
40123;DHT22;25832;45.490;4.912;2023-02-21T03:47:37;2.20;99.90
40123;DHT22;25832;45.490;4.912;2023-02-21T03:50:02;2.10;99.90
40123;DHT22;25832;45.490;4.912;2023-02-21T03:52:29;2.10;99.90
40123;DHT22;25832;45.490;4.912;2023-02-21T03:54:55;2.00;99.90
40123;DHT22;25832;45.490;4.912;2023-02-21T03:57:21;2.00;99.90
40123;DHT22;25832;45.490;4.912;2023-02-21T03:59:46;1.90;99.90
40123;DHT22;25832;45.490;4.912;2023-02-21T04:02:12;1.90;99.90
40123;DHT22;25832;45.490;4.912;2023-02-21T04:04:38;1.90;99.90
40123;DHT22;25832;45.490;4.912;2023-02-21T04:07:03;1.90;99.90
40123;DHT22;25832;45.490;4.912;2023-02-21T04:09:29;1.90;99.90
40123;DHT22;25832;45.490;4.912;2023-02-21T04:11:55;1.90;99.90
40123;DHT22;25832;45.490;4.912;2023-02-21T04:14:20;2.00;99.90
40123;DHT22;25832;45.490;4.912;2023-02-21T04:16:46;2.00;99.90
40123;DHT22;25832;45.490;4.912;2023-02-21T04:19:12;2.00;99.90
40123;DHT22;25832;45.490;4.912;2023-02-21T04:21:37;2.00;99.90
40123;DHT22;25832;45.490;4.912;2023-02-21T04:24:03;2.10;99.90
40123;DHT22;25832;45.490;4.912;2023-02-21T04:26:29;2.10;99.90
40123;DHT22;25832;45.490;4.912;2023-02-21T04:28:55;2.30;99.90
40123;DHT22;25832;45.490;4.912;2023-02-21T04:31:22;2.40;99.90
40123;DHT22;25832;45.490;4.912;2023-02-21T04:33:48;2.50;99.90
40123;DHT22;25832;45.490;4.912;2023-02-21T04:36:14;2.70;99.90
40123;DHT22;25832;45.490;4.912;2023-02-21T04:38:39;3.00;99.90
40123;DHT22;25832;45.490;4.912;2023-02-21T04:41:05;3.20;99.90
40123;DHT22;25832;45.490;4.912;2023-02-21T04:43:31;3.40;99.90
40123;DHT22;25832;45.490;4.912;2023-02-21T04:45:58;3.90;99.90
40123;DHT22;25832;45.490;4.912;2023-02-21T04:48:24;4.20;99.90
40123;DHT22;25832;45.490;4.912;2023-02-21T04:50:49;4.40;99.90
40123;DHT22;25832;45.490;4.912;2023-02-21T04:53:15;4.60;99.90
40123;DHT22;25832;45.490;4.912;2023-02-21T04:55:41;4.80;99.90
40123;DHT22;25832;45.490;4.912;2023-02-21T04:58:06;4.90;99.90
40123;DHT22;25832;45.490;4.912;2023-02-21T05:00:32;5.00;99.90
40123;DHT22;25832;45.490;4.912;2023-02-21T05:02:58;5.20;99.90
40123;DHT22;25832;45.490;4.912;2023-02-21T05:05:23;5.30;99.90
40123;DHT22;25832;45.490;4.912;2023-02-21T05:07:49;5.30;99.90
40123;DHT22;25832;45.490;4.912;2023-02-21T05:10:16;5.50;99.90
40123;DHT22;25832;45.490;4.912;2023-02-21T05:12:43;5.70;99.90
40123;DHT22;25832;45.490;4.912;2023-02-21T05:15:09;5.70;99.90
40123;DHT22;25832;45.490;4.912;2023-02-21T05:17:35;5.80;99.90
40123;DHT22;25832;45.490;4.912;2023-02-21T05:20:01;5.90;99.90
40123;DHT22;25832;45.490;4.912;2023-02-21T05:22:27;5.90;99.90
40123;DHT22;25832;45.490;4.912;2023-02-21T05:24:53;5.90;99.90
40123;DHT22;25832;45.490;4.912;2023-02-21T05:27:20;6.00;99.90
40123;DHT22;25832;45.490;4.912;2023-02-21T05:29:51;6.10;99.90
40123;DHT22;25832;45.490;4.912;2023-02-21T05:32:19;6.10;99.90
40123;DHT22;25832;45.490;4.912;2023-02-21T05:34:45;6.10;99.90
40123;DHT22;25832;45.490;4.912;2023-02-21T05:37:16;6.20;99.90
40123;DHT22;25832;45.490;4.912;2023-02-21T05:39:42;6.20;99.90
40123;DHT22;25832;45.490;4.912;2023-02-21T05:42:08;6.20;99.90
40123;DHT22;25832;45.490;4.912;2023-02-21T05:44:34;6.20;99.90
40123;DHT22;25832;45.490;4.912;2023-02-21T05:47:00;6.30;99.90
40123;DHT22;25832;45.490;4.912;2023-02-21T05:49:27;6.30;99.90
40123;DHT22;25832;45.490;4.912;2023-02-21T05:51:53;6.30;99.90
40123;DHT22;25832;45.490;4.912;2023-02-21T05:54:20;6.30;99.90
40123;DHT22;25832;45.490;4.912;2023-02-21T05:56:48;6.30;99.90
40123;DHT22;25832;45.490;4.912;2023-02-21T05:59:16;6.30;99.90
40123;DHT22;25832;45.490;4.912;2023-02-21T06:01:43;6.30;99.90
40123;DHT22;25832;45.490;4.912;2023-02-21T06:04:09;6.40;99.90
40123;DHT22;25832;45.490;4.912;2023-02-21T06:06:35;6.40;99.90
40123;DHT22;25832;45.490;4.912;2023-02-21T06:09:02;6.40;99.90
40123;DHT22;25832;45.490;4.912;2023-02-21T06:11:31;6.40;99.90
40123;DHT22;25832;45.490;4.912;2023-02-21T06:14:00;6.40;99.90
40123;DHT22;25832;45.490;4.912;2023-02-21T06:16:35;6.50;99.90
40123;DHT22;25832;45.490;4.912;2023-02-21T06:19:01;6.50;99.90
40123;DHT22;25832;45.490;4.912;2023-02-21T06:21:27;6.50;99.90
40123;DHT22;25832;45.490;4.912;2023-02-21T06:23:53;6.60;99.90
40123;DHT22;25832;45.490;4.912;2023-02-21T06:26:19;6.50;99.90
40123;DHT22;25832;45.490;4.912;2023-02-21T06:28:45;6.50;99.90
40123;DHT22;25832;45.490;4.912;2023-02-21T06:31:11;6.50;99.90
40123;DHT22;25832;45.490;4.912;2023-02-21T06:33:37;6.50;99.90
40123;DHT22;25832;45.490;4.912;2023-02-21T06:36:04;6.60;99.90
40123;DHT22;25832;45.490;4.912;2023-02-21T06:38:30;6.60;99.90
40123;DHT22;25832;45.490;4.912;2023-02-21T06:40:56;6.60;99.90
40123;DHT22;25832;45.490;4.912;2023-02-21T06:43:21;6.60;99.90
40123;DHT22;25832;45.490;4.912;2023-02-21T06:45:47;6.60;99.90
40123;DHT22;25832;45.490;4.912;2023-02-21T06:48:17;6.60;99.90
40123;DHT22;25832;45.490;4.912;2023-02-21T06:50:43;6.70;99.90
40123;DHT22;25832;45.490;4.912;2023-02-21T06:53:09;6.70;99.90
40123;DHT22;25832;45.490;4.912;2023-02-21T06:55:34;6.80;99.90
40123;DHT22;25832;45.490;4.912;2023-02-21T06:58:00;6.80;99.90
40123;DHT22;25832;45.490;4.912;2023-02-21T07:00:26;6.70;99.90
40123;DHT22;25832;45.490;4.912;2023-02-21T07:02:52;6.80;99.90
40123;DHT22;25832;45.490;4.912;2023-02-21T07:05:18;6.80;99.90
40123;DHT22;25832;45.490;4.912;2023-02-21T07:07:44;6.80;99.90
40123;DHT22;25832;45.490;4.912;2023-02-21T07:10:10;6.80;99.90
40123;DHT22;25832;45.490;4.912;2023-02-21T07:12:36;6.80;99.90
40123;DHT22;25832;45.490;4.912;2023-02-21T07:15:02;6.80;99.90
40123;DHT22;25832;45.490;4.912;2023-02-21T07:17:28;6.80;99.90
40123;DHT22;25832;45.490;4.912;2023-02-21T07:19:54;6.80;99.90
40123;DHT22;25832;45.490;4.912;2023-02-21T07:22:20;6.90;99.90
40123;DHT22;25832;45.490;4.912;2023-02-21T07:24:51;6.90;99.90
40123;DHT22;25832;45.490;4.912;2023-02-21T07:27:17;7.00;99.90
40123;DHT22;25832;45.490;4.912;2023-02-21T07:29:45;7.00;99.90
40123;DHT22;25832;45.490;4.912;2023-02-21T07:32:11;7.00;99.90
40123;DHT22;25832;45.490;4.912;2023-02-21T07:34:37;7.00;99.90
40123;DHT22;25832;45.490;4.912;2023-02-21T07:37:02;7.10;99.90
40123;DHT22;25832;45.490;4.912;2023-02-21T07:39:28;7.10;99.90
40123;DHT22;25832;45.490;4.912;2023-02-21T07:41:54;7.10;99.90
40123;DHT22;25832;45.490;4.912;2023-02-21T07:44:19;7.20;99.90
40123;DHT22;25832;45.490;4.912;2023-02-21T07:46:45;7.20;99.90
40123;DHT22;25832;45.490;4.912;2023-02-21T07:49:11;7.20;99.90
40123;DHT22;25832;45.490;4.912;2023-02-21T07:51:36;7.20;99.90
40123;DHT22;25832;45.490;4.912;2023-02-21T07:54:02;7.30;99.90
40123;DHT22;25832;45.490;4.912;2023-02-21T07:56:28;7.30;99.90
40123;DHT22;25832;45.490;4.912;2023-02-21T07:58:54;7.30;99.90
40123;DHT22;25832;45.490;4.912;2023-02-21T08:01:23;7.30;99.90
40123;DHT22;25832;45.490;4.912;2023-02-21T08:03:48;7.40;99.90
40123;DHT22;25832;45.490;4.912;2023-02-21T08:06:14;7.50;99.90
40123;DHT22;25832;45.490;4.912;2023-02-21T08:08:40;7.50;99.90
40123;DHT22;25832;45.490;4.912;2023-02-21T08:11:06;7.60;99.90
40123;DHT22;25832;45.490;4.912;2023-02-21T08:13:31;7.60;99.90
40123;DHT22;25832;45.490;4.912;2023-02-21T08:15:57;7.60;99.90
40123;DHT22;25832;45.490;4.912;2023-02-21T08:18:23;7.60;99.90
40123;DHT22;25832;45.490;4.912;2023-02-21T08:20:50;7.60;99.90
40123;DHT22;25832;45.490;4.912;2023-02-21T08:23:17;7.70;99.90
40123;DHT22;25832;45.490;4.912;2023-02-21T08:25:43;7.70;99.90
40123;DHT22;25832;45.490;4.912;2023-02-21T08:28:09;7.70;99.90
40123;DHT22;25832;45.490;4.912;2023-02-21T08:30:35;7.80;99.90
40123;DHT22;25832;45.490;4.912;2023-02-21T08:33:01;7.80;99.90
40123;DHT22;25832;45.490;4.912;2023-02-21T08:35:27;7.80;99.90
40123;DHT22;25832;45.490;4.912;2023-02-21T08:37:53;7.80;99.90
40123;DHT22;25832;45.490;4.912;2023-02-21T08:40:23;7.90;99.90
40123;DHT22;25832;45.490;4.912;2023-02-21T08:42:52;7.90;99.90
40123;DHT22;25832;45.490;4.912;2023-02-21T08:45:20;7.90;99.90
40123;DHT22;25832;45.490;4.912;2023-02-21T08:47:46;8.00;99.90
40123;DHT22;25832;45.490;4.912;2023-02-21T08:50:12;8.00;99.90
40123;DHT22;25832;45.490;4.912;2023-02-21T08:52:38;8.20;99.90
40123;DHT22;25832;45.490;4.912;2023-02-21T08:55:05;8.20;99.90
40123;DHT22;25832;45.490;4.912;2023-02-21T08:57:31;8.10;99.90
40123;DHT22;25832;45.490;4.912;2023-02-21T08:59:59;8.20;99.90
40123;DHT22;25832;45.490;4.912;2023-02-21T09:02:25;8.30;99.90
40123;DHT22;25832;45.490;4.912;2023-02-21T09:04:53;8.30;99.90
40123;DHT22;25832;45.490;4.912;2023-02-21T09:07:21;8.40;99.90
40123;DHT22;25832;45.490;4.912;2023-02-21T09:09:47;8.40;99.90
40123;DHT22;25832;45.490;4.912;2023-02-21T09:12:13;8.40;99.90
40123;DHT22;25832;45.490;4.912;2023-02-21T09:14:40;8.40;99.90
40123;DHT22;25832;45.490;4.912;2023-02-21T09:17:09;8.40;99.90
40123;DHT22;25832;45.490;4.912;2023-02-21T09:19:35;8.40;99.90
40123;DHT22;25832;45.490;4.912;2023-02-21T09:22:01;8.40;99.90
40123;DHT22;25832;45.490;4.912;2023-02-21T09:24:29;8.50;99.90
40123;DHT22;25832;45.490;4.912;2023-02-21T09:26:57;8.40;99.90
40123;DHT22;25832;45.490;4.912;2023-02-21T09:29:31;8.50;99.90
40123;DHT22;25832;45.490;4.912;2023-02-21T09:31:57;8.50;99.90
40123;DHT22;25832;45.490;4.912;2023-02-21T09:34:23;8.50;99.90
40123;DHT22;25832;45.490;4.912;2023-02-21T09:36:49;8.50;99.90
40123;DHT22;25832;45.490;4.912;2023-02-21T09:39:20;8.50;99.90
40123;DHT22;25832;45.490;4.912;2023-02-21T09:41:46;8.50;99.90
40123;DHT22;25832;45.490;4.912;2023-02-21T09:44:23;8.60;99.90
40123;DHT22;25832;45.490;4.912;2023-02-21T09:46:57;8.60;99.90
40123;DHT22;25832;45.490;4.912;2023-02-21T09:49:36;8.70;99.90
40123;DHT22;25832;45.490;4.912;2023-02-21T09:52:04;8.80;99.90
40123;DHT22;25832;45.490;4.912;2023-02-21T09:54:39;8.80;99.90
40123;DHT22;25832;45.490;4.912;2023-02-21T09:57:12;8.90;99.90
40123;DHT22;25832;45.490;4.912;2023-02-21T09:59:38;8.90;99.90
40123;DHT22;25832;45.490;4.912;2023-02-21T10:05:07;9.00;99.90
40123;DHT22;25832;45.490;4.912;2023-02-21T10:10:18;9.10;99.90
40123;DHT22;25832;45.490;4.912;2023-02-21T10:20:53;9.30;99.90
40123;DHT22;25832;45.490;4.912;2023-02-21T10:25:58;9.40;99.90
40123;DHT22;25832;45.490;4.912;2023-02-21T10:28:27;9.40;99.90
40123;DHT22;25832;45.490;4.912;2023-02-21T10:34:02;9.50;99.90
40123;DHT22;25832;45.490;4.912;2023-02-21T10:36:29;9.50;99.90
40123;DHT22;25832;45.490;4.912;2023-02-21T10:39:15;9.50;99.90
40123;DHT22;25832;45.490;4.912;2023-02-21T10:41:42;9.60;99.90
40123;DHT22;25832;45.490;4.912;2023-02-21T10:44:28;9.60;99.90
40123;DHT22;25832;45.490;4.912;2023-02-21T10:47:19;9.70;99.90
40123;DHT22;25832;45.490;4.912;2023-02-21T10:50:04;9.80;99.90
40123;DHT22;25832;45.490;4.912;2023-02-21T10:52:36;9.90;99.90
40123;DHT22;25832;45.490;4.912;2023-02-21T10:55:06;10.00;99.90
40123;DHT22;25832;45.490;4.912;2023-02-21T10:57:41;10.00;99.90
40123;DHT22;25832;45.490;4.912;2023-02-21T11:00:08;10.10;99.90
40123;DHT22;25832;45.490;4.912;2023-02-21T11:02:39;10.30;99.90
40123;DHT22;25832;45.490;4.912;2023-02-21T11:05:16;10.40;99.90
40123;DHT22;25832;45.490;4.912;2023-02-21T11:08:15;10.50;99.90
40123;DHT22;25832;45.490;4.912;2023-02-21T11:10:56;10.70;99.90
40123;DHT22;25832;45.490;4.912;2023-02-21T11:13:22;10.90;99.90
40123;DHT22;25832;45.490;4.912;2023-02-21T11:15:48;11.10;99.90
40123;DHT22;25832;45.490;4.912;2023-02-21T11:18:31;11.40;99.90
40123;DHT22;25832;45.490;4.912;2023-02-21T11:21:13;11.60;99.90
40123;DHT22;25832;45.490;4.912;2023-02-21T11:23:55;11.80;99.90
40123;DHT22;25832;45.490;4.912;2023-02-21T11:26:23;12.00;99.90
40123;DHT22;25832;45.490;4.912;2023-02-21T11:28:51;12.20;99.90
40123;DHT22;25832;45.490;4.912;2023-02-21T11:31:31;12.30;99.90
40123;DHT22;25832;45.490;4.912;2023-02-21T11:34:01;12.40;99.90
40123;DHT22;25832;45.490;4.912;2023-02-21T11:36:34;12.40;99.90
40123;DHT22;25832;45.490;4.912;2023-02-21T11:44:33;12.60;99.90
40123;DHT22;25832;45.490;4.912;2023-02-21T11:47:15;12.70;99.90
40123;DHT22;25832;45.490;4.912;2023-02-21T11:49:46;12.70;99.90
40123;DHT22;25832;45.490;4.912;2023-02-21T11:55:03;12.80;99.90
40123;DHT22;25832;45.490;4.912;2023-02-21T11:57:43;12.70;99.90
40123;DHT22;25832;45.490;4.912;2023-02-21T12:06:47;12.80;99.90
40123;DHT22;25832;45.490;4.912;2023-02-21T12:18:20;13.20;99.90
40123;DHT22;25832;45.490;4.912;2023-02-21T12:29:11;13.20;99.90
40123;DHT22;25832;45.490;4.912;2023-02-21T12:32:14;13.20;99.90
40123;DHT22;25832;45.490;4.912;2023-02-21T12:45:48;13.80;99.90
40123;DHT22;25832;45.490;4.912;2023-02-21T12:50:49;13.90;99.90
40123;DHT22;25832;45.490;4.912;2023-02-21T12:53:40;14.00;99.90
40123;DHT22;25832;45.490;4.912;2023-02-21T12:56:15;14.10;99.90
40123;DHT22;25832;45.490;4.912;2023-02-21T12:58:58;14.10;99.90
40123;DHT22;25832;45.490;4.912;2023-02-21T13:01:38;14.10;99.90
40123;DHT22;25832;45.490;4.912;2023-02-21T13:07:09;14.20;99.90
40123;DHT22;25832;45.490;4.912;2023-02-21T13:09:44;14.30;99.90
40123;DHT22;25832;45.490;4.912;2023-02-21T13:12:27;14.30;99.90
40123;DHT22;25832;45.490;4.912;2023-02-21T13:15:15;14.40;99.90
40123;DHT22;25832;45.490;4.912;2023-02-21T13:17:42;14.40;99.90
40123;DHT22;25832;45.490;4.912;2023-02-21T13:20:14;14.30;99.90
40123;DHT22;25832;45.490;4.912;2023-02-21T13:26:26;14.20;99.90
40123;DHT22;25832;45.490;4.912;2023-02-21T13:28:56;14.00;99.90
40123;DHT22;25832;45.490;4.912;2023-02-21T13:31:33;14.00;99.90
40123;DHT22;25832;45.490;4.912;2023-02-21T13:34:05;13.90;99.90
40123;DHT22;25832;45.490;4.912;2023-02-21T13:41:43;14.10;99.90
40123;DHT22;25832;45.490;4.912;2023-02-21T13:44:15;14.10;99.90
40123;DHT22;25832;45.490;4.912;2023-02-21T13:49:40;14.00;99.90
40123;DHT22;25832;45.490;4.912;2023-02-21T13:57:43;13.80;99.90
40123;DHT22;25832;45.490;4.912;2023-02-21T14:05:26;13.70;99.90
40123;DHT22;25832;45.490;4.912;2023-02-21T14:16:45;13.60;99.90
40123;DHT22;25832;45.490;4.912;2023-02-21T14:22:01;13.60;99.90
40123;DHT22;25832;45.490;4.912;2023-02-21T14:24:36;13.60;99.90
40123;DHT22;25832;45.490;4.912;2023-02-21T14:29:35;13.60;99.90
40123;DHT22;25832;45.490;4.912;2023-02-21T14:48:30;13.80;99.90
40123;DHT22;25832;45.490;4.912;2023-02-21T15:05:21;14.40;99.90
40123;DHT22;25832;45.490;4.912;2023-02-21T15:10:15;14.50;99.90
40123;DHT22;25832;45.490;4.912;2023-02-21T15:12:46;14.50;99.90
40123;DHT22;25832;45.490;4.912;2023-02-21T15:18:08;14.60;99.90
40123;DHT22;25832;45.490;4.912;2023-02-21T15:20:39;14.60;99.90
40123;DHT22;25832;45.490;4.912;2023-02-21T15:23:15;14.50;99.90
40123;DHT22;25832;45.490;4.912;2023-02-21T15:25:43;14.50;99.90
40123;DHT22;25832;45.490;4.912;2023-02-21T15:28:26;14.50;99.90
40123;DHT22;25832;45.490;4.912;2023-02-21T15:33:23;14.40;99.90
40123;DHT22;25832;45.490;4.912;2023-02-21T15:35:57;14.40;99.90
40123;DHT22;25832;45.490;4.912;2023-02-21T15:38:36;14.30;99.90
40123;DHT22;25832;45.490;4.912;2023-02-21T15:41:11;14.30;99.90
40123;DHT22;25832;45.490;4.912;2023-02-21T15:43:47;14.10;99.90
40123;DHT22;25832;45.490;4.912;2023-02-21T15:46:22;14.10;99.90
40123;DHT22;25832;45.490;4.912;2023-02-21T15:48:49;14.00;99.90
40123;DHT22;25832;45.490;4.912;2023-02-21T15:51:15;14.00;99.90
40123;DHT22;25832;45.490;4.912;2023-02-21T15:53:41;13.90;99.90
40123;DHT22;25832;45.490;4.912;2023-02-21T15:56:23;13.80;99.90
40123;DHT22;25832;45.490;4.912;2023-02-21T16:01:35;13.70;99.90
40123;DHT22;25832;45.490;4.912;2023-02-21T16:04:19;13.60;99.90
40123;DHT22;25832;45.490;4.912;2023-02-21T16:06:52;13.60;99.90
40123;DHT22;25832;45.490;4.912;2023-02-21T16:09:28;13.50;99.90
40123;DHT22;25832;45.490;4.912;2023-02-21T16:12:25;13.40;99.90
40123;DHT22;25832;45.490;4.912;2023-02-21T16:17:43;13.30;99.90
40123;DHT22;25832;45.490;4.912;2023-02-21T16:20:20;13.20;99.90
40123;DHT22;25832;45.490;4.912;2023-02-21T16:22:51;13.10;99.90
40123;DHT22;25832;45.490;4.912;2023-02-21T16:28:25;12.90;99.90
40123;DHT22;25832;45.490;4.912;2023-02-21T16:30:51;12.80;99.90
40123;DHT22;25832;45.490;4.912;2023-02-21T16:33:17;12.70;99.90
40123;DHT22;25832;45.490;4.912;2023-02-21T16:35:43;12.60;99.90
40123;DHT22;25832;45.490;4.912;2023-02-21T16:38:13;12.60;99.90
40123;DHT22;25832;45.490;4.912;2023-02-21T16:40:39;12.50;99.90
40123;DHT22;25832;45.490;4.912;2023-02-21T16:43:05;12.40;99.90
40123;DHT22;25832;45.490;4.912;2023-02-21T16:45:31;12.30;99.90
40123;DHT22;25832;45.490;4.912;2023-02-21T16:48:01;12.30;99.90
40123;DHT22;25832;45.490;4.912;2023-02-21T16:52:58;12.10;99.90
40123;DHT22;25832;45.490;4.912;2023-02-21T16:55:25;12.00;99.90
40123;DHT22;25832;45.490;4.912;2023-02-21T16:58:00;11.90;99.90
40123;DHT22;25832;45.490;4.912;2023-02-21T17:00:26;11.80;99.90
40123;DHT22;25832;45.490;4.912;2023-02-21T17:02:52;11.80;99.90
40123;DHT22;25832;45.490;4.912;2023-02-21T17:05:19;11.70;99.90
40123;DHT22;25832;45.490;4.912;2023-02-21T17:07:47;11.60;99.90
40123;DHT22;25832;45.490;4.912;2023-02-21T17:10:14;11.60;99.90
40123;DHT22;25832;45.490;4.912;2023-02-21T17:12:39;11.40;99.90
40123;DHT22;25832;45.490;4.912;2023-02-21T17:15:05;11.30;99.90
40123;DHT22;25832;45.490;4.912;2023-02-21T17:17:31;11.20;99.90
40123;DHT22;25832;45.490;4.912;2023-02-21T17:19:57;11.10;99.90
40123;DHT22;25832;45.490;4.912;2023-02-21T17:22:23;11.10;99.90
40123;DHT22;25832;45.490;4.912;2023-02-21T17:24:48;11.00;99.90
40123;DHT22;25832;45.490;4.912;2023-02-21T17:27:14;11.00;99.90
40123;DHT22;25832;45.490;4.912;2023-02-21T17:29:40;10.90;99.90
40123;DHT22;25832;45.490;4.912;2023-02-21T17:32:07;10.90;99.90
40123;DHT22;25832;45.490;4.912;2023-02-21T17:34:33;10.80;99.90
40123;DHT22;25832;45.490;4.912;2023-02-21T17:36:59;10.70;99.90
40123;DHT22;25832;45.490;4.912;2023-02-21T17:39:25;10.60;99.90
40123;DHT22;25832;45.490;4.912;2023-02-21T17:41:51;10.50;99.90
40123;DHT22;25832;45.490;4.912;2023-02-21T17:44:17;10.50;99.90
40123;DHT22;25832;45.490;4.912;2023-02-21T17:46:51;10.40;99.90
40123;DHT22;25832;45.490;4.912;2023-02-21T17:49:19;10.40;99.90
40123;DHT22;25832;45.490;4.912;2023-02-21T17:51:45;10.30;99.90
40123;DHT22;25832;45.490;4.912;2023-02-21T17:54:16;10.20;99.90
40123;DHT22;25832;45.490;4.912;2023-02-21T17:56:42;10.20;99.90
40123;DHT22;25832;45.490;4.912;2023-02-21T17:59:08;10.20;99.90
40123;DHT22;25832;45.490;4.912;2023-02-21T18:01:33;10.00;99.90
40123;DHT22;25832;45.490;4.912;2023-02-21T18:03:59;9.90;99.90
40123;DHT22;25832;45.490;4.912;2023-02-21T18:06:28;9.80;99.90
40123;DHT22;25832;45.490;4.912;2023-02-21T18:08:55;9.80;99.90
40123;DHT22;25832;45.490;4.912;2023-02-21T18:11:22;9.80;99.90
40123;DHT22;25832;45.490;4.912;2023-02-21T18:13:48;9.80;99.90
40123;DHT22;25832;45.490;4.912;2023-02-21T18:16:13;9.80;99.90
40123;DHT22;25832;45.490;4.912;2023-02-21T18:18:39;9.80;99.90
40123;DHT22;25832;45.490;4.912;2023-02-21T18:21:06;9.80;99.90
40123;DHT22;25832;45.490;4.912;2023-02-21T18:23:33;9.80;99.90
40123;DHT22;25832;45.490;4.912;2023-02-21T18:26:00;9.80;99.90
40123;DHT22;25832;45.490;4.912;2023-02-21T18:28:27;9.80;99.90
40123;DHT22;25832;45.490;4.912;2023-02-21T18:30:54;9.90;99.90
40123;DHT22;25832;45.490;4.912;2023-02-21T18:33:22;9.80;99.90
40123;DHT22;25832;45.490;4.912;2023-02-21T18:35:48;9.80;99.90
40123;DHT22;25832;45.490;4.912;2023-02-21T18:38:14;9.80;99.90
40123;DHT22;25832;45.490;4.912;2023-02-21T18:40:43;9.70;99.90
40123;DHT22;25832;45.490;4.912;2023-02-21T18:43:23;9.70;99.90
40123;DHT22;25832;45.490;4.912;2023-02-21T18:45:51;9.70;99.90
40123;DHT22;25832;45.490;4.912;2023-02-21T18:48:17;9.60;99.90
40123;DHT22;25832;45.490;4.912;2023-02-21T18:50:43;9.60;99.90
40123;DHT22;25832;45.490;4.912;2023-02-21T18:53:10;9.60;99.90
40123;DHT22;25832;45.490;4.912;2023-02-21T18:55:36;9.60;99.90
40123;DHT22;25832;45.490;4.912;2023-02-21T18:58:03;9.60;99.90
40123;DHT22;25832;45.490;4.912;2023-02-21T19:00:30;9.60;99.90
40123;DHT22;25832;45.490;4.912;2023-02-21T19:02:58;9.70;99.90
40123;DHT22;25832;45.490;4.912;2023-02-21T19:05:24;9.60;99.90
40123;DHT22;25832;45.490;4.912;2023-02-21T19:07:50;9.60;99.90
40123;DHT22;25832;45.490;4.912;2023-02-21T19:10:19;9.60;99.90
40123;DHT22;25832;45.490;4.912;2023-02-21T19:12:47;9.60;99.90
40123;DHT22;25832;45.490;4.912;2023-02-21T19:15:13;9.60;99.90
40123;DHT22;25832;45.490;4.912;2023-02-21T19:17:39;9.60;99.90
40123;DHT22;25832;45.490;4.912;2023-02-21T19:20:05;9.60;99.90
40123;DHT22;25832;45.490;4.912;2023-02-21T19:22:32;9.60;99.90
40123;DHT22;25832;45.490;4.912;2023-02-21T19:24:57;9.60;99.90